Time;durP1;ratioP1;P1;durP2;ratioP2;P2;SDS_P1;SDS_P2;PMS_P1;PMS_P2;Temp;Humidity;BMP_temperature;BMP_pressure;BME280_temperature;BME280_humidity;BME280_pressure;Samples;Min_cycle;Max_cycle;Signal;HPM_P1;HPM_P2
2022/07/10 00:00:58;;;;;;;;;3.33;2.67;;;;;22.38;48.88;102435.56;5035307;28;45489;-65
2022/07/10 00:03:23;;;;;;;;;2.00;2.00;;;;;22.43;48.28;102433.09;5052744;28;45524;-68
2022/07/10 00:05:49;;;;;;;;;3.33;3.00;;;;;22.52;48.11;102425.59;5053848;28;46197;-67
2022/07/10 00:08:14;;;;;;;;;2.67;2.00;;;;;22.40;48.71;102435.38;5054361;28;45414;-66
2022/07/10 00:10:40;;;;;;;;;6.67;5.67;;;;;22.36;48.97;102440.41;5051213;28;45434;-66
2022/07/10 00:13:05;;;;;;;;;4.33;3.33;;;;;22.24;49.34;102439.13;5051050;28;45421;-67
2022/07/10 00:15:32;;;;;;;;;3.00;3.00;;;;;22.16;49.66;102433.66;5042413;28;45529;-67
2022/07/10 00:17:57;;;;;;;;;3.00;3.00;;;;;22.11;50.11;102439.75;5049469;28;45437;-66
2022/07/10 00:20:22;;;;;;;;;4.00;2.33;;;;;22.21;49.76;102438.66;5042261;28;45404;-67
2022/07/10 00:22:48;;;;;;;;;5.00;4.33;;;;;22.03;50.27;102436.16;5033352;28;45478;-67
2022/07/10 00:25:13;;;;;;;;;2.33;2.33;;;;;22.20;49.79;102437.78;5049414;28;46086;-67
2022/07/10 00:27:40;;;;;;;;;4.33;3.00;;;;;21.99;50.74;102434.81;5046039;28;45237;-67
2022/07/10 00:30:07;;;;;;;;;2.67;2.00;;;;;21.82;51.80;102427.63;5042220;28;45350;-67
2022/07/10 00:32:33;;;;;;;;;4.00;4.00;;;;;21.57;53.12;102437.94;5043345;28;45634;-67
2022/07/10 00:34:58;;;;;;;;;6.67;3.00;;;;;21.64;52.95;102437.03;5040771;28;47283;-67
2022/07/10 00:37:24;;;;;;;;;4.33;3.00;;;;;21.53;53.37;102434.69;5042777;28;45402;-67
2022/07/10 00:39:49;;;;;;;;;4.00;4.00;;;;;21.61;53.75;102442.09;5051738;28;45315;-67
2022/07/10 00:42:15;;;;;;;;;5.00;5.00;;;;;21.77;52.92;102445.59;5047404;28;48055;-67
2022/07/10 00:44:42;;;;;;;;;3.33;3.33;;;;;21.61;53.92;102440.19;5052950;28;46609;-67
2022/07/10 00:47:09;;;;;;;;;4.33;3.00;;;;;21.51;54.61;102433.13;5039185;28;45443;-67
2022/07/10 00:49:35;;;;;;;;;2.67;2.67;;;;;21.59;53.74;102439.50;5060350;28;45341;-67
2022/07/10 00:52:05;;;;;;;;;6.00;6.00;;;;;21.62;54.20;102441.91;5064214;28;45253;-67
2022/07/10 00:54:33;;;;;;;;;3.00;3.00;;;;;21.64;53.44;102438.94;5050278;28;46670;-67
2022/07/10 00:56:59;;;;;;;;;4.00;4.00;;;;;21.48;54.37;102428.81;5044080;28;45270;-67
2022/07/10 00:59:25;;;;;;;;;4.00;4.00;;;;;21.50;54.17;102428.63;5053100;28;45322;-67
2022/07/10 01:01:51;;;;;;;;;4.33;4.33;;;;;21.47;54.45;102429.88;5048859;28;45174;-66
2022/07/10 01:04:18;;;;;;;;;3.33;2.00;;;;;21.15;56.23;102429.94;5054476;28;45441;-67
2022/07/10 01:06:43;;;;;;;;;15.50;14.25;;;;;21.18;56.68;102424.97;5059543;28;45462;-67
2022/07/10 01:09:08;;;;;;;;;6.00;6.00;;;;;21.06;57.21;102412.50;5047158;28;45446;-67
2022/07/10 01:11:37;;;;;;;;;4.33;4.00;;;;;21.16;56.20;102404.91;5048309;28;45274;-67
2022/07/10 01:14:03;;;;;;;;;3.00;3.00;;;;;21.14;57.00;102419.91;5053793;28;46654;-67
2022/07/10 01:16:29;;;;;;;;;5.33;4.00;;;;;21.06;57.57;102426.31;5045240;28;45416;-67
2022/07/10 01:18:55;;;;;;;;;4.00;4.00;;;;;21.16;56.83;102415.97;5056309;28;45577;-67
2022/07/10 01:21:29;;;;;;;;;4.00;4.00;;;;;21.17;57.00;102433.44;5045600;28;45453;-67
2022/07/10 01:23:55;;;;;;;;;5.00;5.00;;;;;21.13;56.67;102432.88;5047896;28;46141;-67
2022/07/10 01:26:23;;;;;;;;;4.00;3.00;;;;;21.15;56.73;102418.88;5051623;28;45258;-67
2022/07/10 01:28:52;;;;;;;;;2.00;2.00;;;;;21.05;57.37;102432.88;5034735;28;45427;-67
2022/07/10 01:31:19;;;;;;;;;4.00;3.00;;;;;21.06;57.07;102433.75;5045448;28;45604;-67
2022/07/10 01:33:46;;;;;;;;;4.67;3.00;;;;;20.86;57.55;102420.34;5047143;28;45441;-67
2022/07/10 01:36:11;;;;;;;;;4.00;4.00;;;;;20.72;59.00;102429.34;5045115;28;45219;-67
2022/07/10 01:38:37;;;;;;;;;5.00;3.00;;;;;20.82;58.65;102437.44;5055630;28;45377;-67
2022/07/10 01:41:02;;;;;;;;;5.00;5.00;;;;;20.70;58.78;102431.41;5046369;28;45327;-67
2022/07/10 01:43:27;;;;;;;;;4.00;4.00;;;;;20.69;58.39;102424.16;5051661;28;46431;-67
2022/07/10 01:45:53;;;;;;;;;6.67;4.00;;;;;20.64;58.83;102421.06;5042329;28;45470;-67
2022/07/10 01:48:18;;;;;;;;;5.67;4.00;;;;;20.66;59.16;102427.28;5047144;28;45481;-67
2022/07/10 01:50:44;;;;;;;;;4.00;4.00;;;;;20.63;59.36;102424.84;5043942;28;45437;-67
2022/07/10 01:53:10;;;;;;;;;3.00;3.00;;;;;20.56;59.71;102426.56;5050000;28;45435;-67
2022/07/10 01:55:36;;;;;;;;;3.00;2.00;;;;;20.72;59.57;102434.84;5044617;28;45514;-66
2022/07/10 01:58:02;;;;;;;;;4.00;4.00;;;;;20.82;58.03;102424.47;5057766;28;45478;-66
2022/07/10 02:00:27;;;;;;;;;5.00;5.00;;;;;20.73;58.83;102424.69;5041314;28;45422;-66
2022/07/10 02:05:37;;;;;;;;;4.00;4.00;;;;;20.49;60.52;102439.34;5050720;28;45406;-67
2022/07/10 02:08:03;;;;;;;;;6.67;5.00;;;;;20.41;61.21;102442.09;5053708;28;46081;-66
2022/07/10 02:10:29;;;;;;;;;4.67;4.67;;;;;20.40;60.47;102441.25;5053542;28;45499;-67
2022/07/10 02:12:55;;;;;;;;;5.00;5.00;;;;;20.50;60.18;102436.44;5052487;28;45677;-67
2022/07/10 02:15:21;;;;;;;;;3.67;3.67;;;;;20.49;59.96;102442.09;5044515;28;45330;-67
2022/07/10 02:17:46;;;;;;;;;4.67;4.00;;;;;20.50;60.31;102441.09;5051511;28;45811;-67
2022/07/10 02:20:12;;;;;;;;;5.67;5.67;;;;;20.44;61.04;102444.53;5044682;28;45248;-67
2022/07/10 02:22:37;;;;;;;;;5.00;5.00;;;;;20.20;61.78;102437.91;5049973;28;46266;-67
2022/07/10 02:25:03;;;;;;;;;4.67;4.67;;;;;20.32;61.34;102438.44;5047992;28;45439;-67
2022/07/10 02:27:28;;;;;;;;;4.33;2.67;;;;;20.33;60.80;102431.03;5049414;28;45474;-67
2022/07/10 02:29:54;;;;;;;;;4.00;4.00;;;;;20.33;61.35;102431.03;5044853;28;45308;-67
2022/07/10 02:32:19;;;;;;;;;5.00;5.00;;;;;20.30;61.29;102415.69;5046955;28;46386;-67
2022/07/10 02:34:44;;;;;;;;;5.00;5.00;;;;;20.44;59.85;102416.94;5044046;28;45244;-67
2022/07/10 02:37:09;;;;;;;;;4.67;4.67;;;;;20.48;58.96;102423.81;5044184;28;45395;-67
2022/07/10 02:39:35;;;;;;;;;4.67;4.33;;;;;20.48;59.08;102412.78;5050789;28;45339;-67
2022/07/10 02:42:00;;;;;;;;;4.67;4.67;;;;;20.40;58.68;102416.38;5031733;28;48240;-66
2022/07/10 02:44:25;;;;;;;;;3.00;3.00;;;;;20.37;60.57;102402.09;5050978;28;45304;-66
2022/07/10 02:46:51;;;;;;;;;4.00;4.00;;;;;20.25;60.57;102400.66;5044684;28;45315;-67
2022/07/10 02:49:16;;;;;;;;;6.00;5.00;;;;;20.33;59.27;102398.78;5050157;28;45297;-68
2022/07/10 02:51:41;;;;;;;;;5.00;4.00;;;;;20.38;59.91;102392.78;5043168;28;46424;-66
2022/07/10 02:54:07;;;;;;;;;5.00;4.33;;;;;20.31;60.00;102395.31;5051301;28;45377;-66
2022/07/10 02:56:33;;;;;;;;;8.00;4.67;;;;;20.28;60.28;102403.09;5049028;28;45343;-66
2022/07/10 02:58:58;;;;;;;;;3.67;3.67;;;;;20.20;61.49;102402.03;5052439;28;45510;-66
2022/07/10 03:01:24;;;;;;;;;6.33;5.00;;;;;20.24;61.16;102407.22;5043627;28;45348;-67
2022/07/10 03:03:49;;;;;;;;;5.00;5.00;;;;;20.20;61.45;102410.31;5044281;28;45496;-68
2022/07/10 03:06:14;;;;;;;;;4.67;4.33;;;;;20.24;61.17;102407.22;5043531;28;45269;-66
2022/07/10 03:08:41;;;;;;;;;7.00;7.00;;;;;20.23;61.62;102394.47;5055154;28;45492;-67
2022/07/10 03:11:07;;;;;;;;;6.00;4.33;;;;;20.21;60.85;102409.28;5049530;28;46660;-66
2022/07/10 03:13:32;;;;;;;;;3.33;3.00;;;;;20.16;61.33;102402.56;5044450;28;45233;-67
2022/07/10 03:15:57;;;;;;;;;5.00;5.00;;;;;20.13;61.30;102406.53;5045276;28;45400;-67
2022/07/10 03:18:22;;;;;;;;;5.00;5.00;;;;;20.27;60.55;102401.34;5053493;28;45496;-67
2022/07/10 03:20:48;;;;;;;;;6.00;5.00;;;;;20.35;59.88;102401.38;5043230;28;47367;-66
2022/07/10 03:23:13;;;;;;;;;5.00;5.00;;;;;20.38;60.34;102399.13;5040959;28;45460;-66
2022/07/10 03:25:38;;;;;;;;;7.67;5.00;;;;;20.18;61.12;102398.59;5034296;28;45363;-67
2022/07/10 03:28:04;;;;;;;;;5.00;5.00;;;;;20.04;62.39;102396.50;5048200;28;45437;-66
2022/07/10 03:30:29;;;;;;;;;4.33;4.33;;;;;20.09;61.60;102399.59;5027494;28;45567;-66
2022/07/10 03:32:54;;;;;;;;;6.33;3.00;;;;;20.12;61.77;102401.16;5048038;28;45343;-66
2022/07/10 03:35:20;;;;;;;;;6.00;4.67;;;;;19.87;62.83;102393.91;5046861;28;45416;-66
2022/07/10 03:37:45;;;;;;;;;7.00;4.00;;;;;19.62;64.13;102392.97;5044774;28;45311;-68
2022/07/10 03:40:11;;;;;;;;;5.50;4.50;;;;;19.81;62.88;102406.44;5048766;28;46176;-67
2022/07/10 03:42:36;;;;;;;;;6.00;5.00;;;;;19.61;64.46;102407.78;5047740;28;45409;-68
2022/07/10 03:45:01;;;;;;;;;5.00;3.00;;;;;19.68;64.28;102395.03;5050593;28;45485;-67
2022/07/10 03:47:27;;;;;;;;;5.67;5.67;;;;;19.80;62.67;102393.69;5042570;28;45538;-67
2022/07/10 03:49:52;;;;;;;;;4.67;4.00;;;;;19.91;63.24;102392.50;5050376;28;45463;-67
2022/07/10 03:52:17;;;;;;;;;8.00;5.00;;;;;19.95;61.89;102389.22;5044805;28;47019;-67
2022/07/10 03:54:42;;;;;;;;;4.00;4.00;;;;;19.91;62.74;102384.25;5047564;28;45480;-67
2022/07/10 03:59:52;;;;;;;;;4.33;4.33;;;;;19.95;61.39;102378.19;5042565;28;45456;-67
2022/07/10 04:02:17;;;;;;;;;4.00;4.00;;;;;20.04;61.73;102387.34;5049359;28;45382;-67
2022/07/10 04:04:43;;;;;;;;;11.33;6.67;;;;;20.03;62.24;102393.91;5046429;28;45437;-65
2022/07/10 04:07:08;;;;;;;;;4.33;4.33;;;;;19.85;61.38;102380.28;5046424;28;45320;-67
2022/07/10 04:09:33;;;;;;;;;7.00;5.33;;;;;19.85;62.02;102383.03;5056666;28;46457;-67
2022/07/10 04:11:59;;;;;;;;;6.00;6.00;;;;;19.76;63.23;102387.66;5044519;28;45212;-68
2022/07/10 04:14:24;;;;;;;;;6.67;6.00;;;;;19.64;64.02;102393.66;5042739;28;45256;-67
2022/07/10 04:16:49;;;;;;;;;9.67;7.67;;;;;19.74;64.09;102391.59;5042168;28;45491;-67
2022/07/10 04:19:15;;;;;;;;;6.67;5.67;;;;;19.89;62.87;102391.81;5048256;28;45267;-67
2022/07/10 04:21:41;;;;;;;;;7.33;4.33;;;;;19.87;62.96;102400.25;5041984;28;45413;-68
2022/07/10 04:24:06;;;;;;;;;5.67;5.67;;;;;20.05;61.78;102401.00;5030153;28;45456;-67
2022/07/10 04:26:32;;;;;;;;;5.00;5.00;;;;;20.02;61.78;102397.69;5039369;28;45281;-67
2022/07/10 04:28:57;;;;;;;;;6.67;4.67;;;;;20.02;61.06;102397.69;5046668;28;45488;-68
2022/07/10 04:31:22;;;;;;;;;5.00;5.00;;;;;20.08;61.50;102392.38;5042744;28;45299;-68
2022/07/10 04:33:48;;;;;;;;;5.00;3.33;;;;;20.07;60.54;102390.66;5043393;28;45522;-68
2022/07/10 04:36:13;;;;;;;;;7.67;4.67;;;;;20.07;61.21;102395.31;5042945;28;45574;-68
2022/07/10 04:38:38;;;;;;;;;5.00;5.00;;;;;20.04;60.98;102395.63;5049083;28;46772;-68
2022/07/10 04:41:05;;;;;;;;;4.33;4.33;;;;;20.06;59.96;102391.69;5042386;28;45467;-66
2022/07/10 04:43:30;;;;;;;;;4.33;4.33;;;;;19.93;60.47;102385.81;5049829;28;45272;-66
2022/07/10 04:45:56;;;;;;;;;7.00;5.33;;;;;19.89;61.41;102394.56;5058263;28;45331;-66
2022/07/10 04:48:21;;;;;;;;;6.33;5.33;;;;;19.94;61.78;102398.56;5054619;28;46594;-66
2022/07/10 04:50:46;;;;;;;;;6.33;6.00;;;;;19.84;61.91;102395.09;5045551;28;45414;-66
2022/07/10 04:53:12;;;;;;;;;4.33;4.33;;;;;19.89;61.74;102397.31;5049329;28;45546;-66
2022/07/10 04:55:37;;;;;;;;;6.00;5.00;;;;;19.96;61.49;102393.72;5042747;28;45437;-66
2022/07/10 04:58:03;;;;;;;;;6.00;6.00;;;;;19.95;60.50;102386.47;5048122;28;45528;-66
2022/07/10 05:00:28;;;;;;;;;3.67;3.67;;;;;19.95;61.83;102389.22;5041822;28;45379;-66
2022/07/10 05:02:53;;;;;;;;;6.00;5.00;;;;;19.87;62.31;102389.22;5055104;28;45397;-66
2022/07/10 05:05:19;;;;;;;;;5.67;5.67;;;;;20.07;61.22;102403.59;5042211;28;45268;-66
2022/07/10 05:07:44;;;;;;;;;6.00;6.00;;;;;20.28;60.84;102394.81;5049785;28;46720;-66
2022/07/10 05:10:09;;;;;;;;;4.67;4.67;;;;;20.40;60.32;102401.72;5032628;28;45267;-66
2022/07/10 05:12:35;;;;;;;;;4.00;4.00;;;;;20.43;59.71;102404.16;5035203;28;45461;-67
2022/07/10 05:15:01;;;;;;;;;6.67;4.33;;;;;20.49;59.36;102411.75;5041988;28;45270;-67
2022/07/10 05:17:28;;;;;;;;;6.00;6.00;;;;;20.47;58.86;102409.16;5055651;28;46368;-67
2022/07/10 05:19:55;;;;;;;;;6.00;6.00;;;;;20.36;59.74;102405.88;5049263;28;45460;-67
2022/07/10 05:22:21;;;;;;;;;6.00;5.33;;;;;20.33;60.06;102408.94;5046304;28;45482;-67
2022/07/10 05:24:46;;;;;;;;;5.00;5.00;;;;;20.38;58.70;102412.09;5046516;28;45338;-67
2022/07/10 05:27:11;;;;;;;;;5.00;5.00;;;;;20.43;59.05;102407.78;5048564;28;45482;-67
2022/07/10 05:29:37;;;;;;;;;4.33;4.33;;;;;20.34;58.88;102405.19;5046234;28;48684;-67
2022/07/10 05:32:02;;;;;;;;;9.00;6.00;;;;;20.35;59.60;102417.94;5045806;28;45344;-67
2022/07/10 05:34:28;;;;;;;;;5.67;4.00;;;;;20.54;59.01;102409.31;5038196;28;45413;-66
2022/07/10 05:36:53;;;;;;;;;6.00;6.00;;;;;20.47;59.47;102409.16;5044819;28;45588;-67
2022/07/10 05:39:19;;;;;;;;;7.67;4.67;;;;;20.51;59.56;102404.16;5046428;28;45442;-66
2022/07/10 05:41:44;;;;;;;;;6.67;4.00;;;;;20.61;59.04;102415.88;5051578;28;45174;-67
2022/07/10 05:44:09;;;;;;;;;7.00;7.00;;;;;20.84;58.11;102416.88;5051993;28;45145;-67
2022/07/10 05:46:35;;;;;;;;;6.00;6.00;;;;;20.91;57.65;102414.28;5044862;28;46713;-67
2022/07/10 05:49:01;;;;;;;;;4.00;4.00;;;;;20.86;57.53;102420.34;5054824;28;45211;-67
2022/07/10 05:51:26;;;;;;;;;5.67;5.67;;;;;20.58;58.66;102411.56;5038162;28;45392;-67
2022/07/10 05:53:52;;;;;;;;;4.33;4.33;;;;;20.79;58.31;102412.91;5053347;28;45471;-67
2022/07/10 05:56:17;;;;;;;;;4.67;4.67;;;;;20.97;57.55;102417.19;5044493;28;45258;-67
2022/07/10 05:58:42;;;;;;;;;5.33;4.33;;;;;20.93;57.28;102423.25;5048314;28;45429;-68
2022/07/10 06:01:08;;;;;;;;;5.00;5.00;;;;;21.01;56.31;102422.38;5044562;28;45275;-68
2022/07/10 06:03:33;;;;;;;;;3.67;3.33;;;;;21.09;56.63;102417.69;5051966;28;45579;-67
2022/07/10 06:05:59;;;;;;;;;6.00;6.00;;;;;21.23;55.68;102424.41;5038909;28;47387;-68
2022/07/10 06:08:25;;;;;;;;;4.00;4.00;;;;;22.03;54.62;102420.44;5036805;28;45558;-68
2022/07/10 06:10:50;;;;;;;;;5.67;4.33;;;;;22.82;50.15;102415.47;5050081;28;45271;-68
2022/07/10 06:13:16;;;;;;;;;3.33;3.33;;;;;23.03;50.79;102421.13;5032702;28;45757;-68
2022/07/10 06:15:41;;;;;;;;;4.33;4.33;;;;;23.45;48.33;102412.13;5038144;28;46552;-68
2022/07/10 06:18:06;;;;;;;;;4.00;4.00;;;;;22.86;49.67;102411.28;5049870;28;45358;-68
2022/07/10 06:20:32;;;;;;;;;5.33;4.00;;;;;22.66;50.34;102415.59;5047053;28;45339;-68
2022/07/10 06:22:58;;;;;;;;;5.67;4.33;;;;;22.66;50.30;102415.59;5049059;28;45652;-66
2022/07/10 06:25:23;;;;;;;;;3.33;3.33;;;;;22.66;50.29;102410.91;5044308;28;46270;-67
2022/07/10 06:27:49;;;;;;;;;3.67;3.67;;;;;22.78;51.62;102405.81;5048130;28;45405;-66
2022/07/10 06:30:14;;;;;;;;;6.67;4.67;;;;;22.86;50.61;102414.06;5044011;28;45280;-67
2022/07/10 06:32:40;;;;;;;;;3.00;3.00;;;;;22.88;50.77;102410.03;5050882;28;45189;-66
2022/07/10 06:35:07;;;;;;;;;5.00;5.00;;;;;22.92;49.94;102407.75;5045898;28;45366;-67
2022/07/10 06:37:33;;;;;;;;;5.67;5.67;;;;;22.73;50.20;102405.47;5047145;28;45522;-66
2022/07/10 06:39:58;;;;;;;;;6.33;5.00;;;;;22.55;50.67;102403.06;5047731;28;45287;-67
2022/07/10 06:42:24;;;;;;;;;5.00;5.00;;;;;22.66;50.58;102404.50;5028454;28;45332;-67
2022/07/10 06:44:49;;;;;;;;;7.00;4.00;;;;;22.90;49.95;102407.06;5049711;28;45953;-67
2022/07/10 06:50:06;;;;;;;;;7.33;4.67;;;;;23.06;49.07;102412.44;5048369;28;45248;-66
2022/07/10 06:52:33;;;;;;;;;5.00;3.00;;;;;23.20;48.31;102419.91;5028996;28;45418;-67
2022/07/10 06:54:58;;;;;;;;;4.00;4.00;;;;;23.05;48.42;102416.25;5047241;28;45442;-68
2022/07/10 06:57:24;;;;;;;;;4.00;3.00;;;;;23.13;47.58;102407.84;5046347;28;45530;-67
2022/07/10 06:59:49;;;;;;;;;2.00;2.00;;;;;23.30;47.33;102411.31;5042923;28;45371;-67
2022/07/10 07:02:14;;;;;;;;;5.67;4.33;;;;;23.39;47.36;102412.91;5049977;28;45272;-67
2022/07/10 07:04:40;;;;;;;;;6.00;4.00;;;;;23.45;47.17;102411.28;5043480;28;46679;-67
2022/07/10 07:07:05;;;;;;;;;2.33;2.33;;;;;23.26;47.00;102407.19;5045354;28;45399;-66
2022/07/10 07:09:30;;;;;;;;;5.00;4.00;;;;;23.33;46.56;102413.69;5051608;28;45520;-67
2022/07/10 07:11:56;;;;;;;;;5.00;3.67;;;;;23.29;47.17;102413.22;5044259;28;45316;-67
2022/07/10 07:14:21;;;;;;;;;4.00;4.00;;;;;23.42;45.71;102422.75;5050885;28;46310;-67
2022/07/10 07:16:57;;;;;;;;;6.67;3.33;;;;;23.50;45.28;102423.56;5043170;28;45659;-67
2022/07/10 07:19:30;;;;;;;;;5.33;3.67;;;;;23.61;45.17;102419.41;5042462;28;45402;-66
2022/07/10 07:24:40;;;;;;;;;3.00;3.00;;;;;23.60;45.36;102404.69;5046071;28;45316;-67
2022/07/10 07:27:05;;;;;;;;;3.00;2.00;;;;;23.66;45.83;102403.06;5031799;28;45415;-67
2022/07/10 07:29:31;;;;;;;;;3.00;2.00;;;;;23.78;45.38;102393.16;5036061;28;45533;-67
2022/07/10 07:31:58;;;;;;;;;3.00;3.00;;;;;23.87;44.83;102394.78;5044137;28;45467;-67
2022/07/10 07:34:24;;;;;;;;;4.33;3.00;;;;;23.95;44.58;102397.44;5044580;28;45487;-67
2022/07/10 07:36:49;;;;;;;;;4.00;3.00;;;;;24.09;43.49;102392.03;5043050;28;45506;-67
2022/07/10 07:39:15;;;;;;;;;2.00;2.00;;;;;24.01;43.28;102388.31;5045814;28;45315;-68
2022/07/10 07:41:40;;;;;;;;;4.67;3.33;;;;;24.02;43.63;102384.47;5043112;28;45347;-67
2022/07/10 07:44:05;;;;;;;;;2.00;2.00;;;;;24.16;42.29;102381.84;5050540;28;45629;-67
2022/07/10 07:46:31;;;;;;;;;3.67;3.00;;;;;24.19;42.06;102375.88;5042572;28;49644;-67
2022/07/10 07:48:57;;;;;;;;;3.00;3.00;;;;;24.19;42.21;102375.88;5052774;28;45420;-68
2022/07/10 07:51:22;;;;;;;;;2.00;2.00;;;;;24.22;42.38;102378.28;5043041;28;45645;-68
2022/07/10 07:53:47;;;;;;;;;2.33;2.33;;;;;24.31;42.32;102375.19;5049804;28;45272;-68
2022/07/10 07:56:13;;;;;;;;;6.00;4.33;;;;;24.15;41.75;102383.75;5040741;28;45351;-68
2022/07/10 07:58:38;;;;;;;;;3.00;3.00;;;;;24.09;41.96;102386.47;5045990;28;45276;-68
2022/07/10 08:01:04;;;;;;;;;3.00;3.00;;;;;24.04;42.09;102389.81;5038987;28;45485;-67
2022/07/10 08:03:29;;;;;;;;;4.33;4.00;;;;;23.94;42.41;102384.59;5049879;28;45718;-67
2022/07/10 08:05:54;;;;;;;;;4.00;4.00;;;;;24.15;42.19;102383.75;5042308;28;45563;-68
2022/07/10 08:08:20;;;;;;;;;5.33;5.33;;;;;24.26;41.38;102385.16;5033495;28;45436;-66
2022/07/10 08:10:45;;;;;;;;;4.33;4.33;;;;;24.37;41.88;102376.31;5048631;28;45679;-66
2022/07/10 08:13:11;;;;;;;;;4.00;4.00;;;;;24.61;41.29;102375.88;5047510;28;45370;-67
2022/07/10 08:15:36;;;;;;;;;4.00;4.00;;;;;24.68;40.52;102376.78;5045562;28;45394;-67
2022/07/10 08:18:04;;;;;;;;;3.00;3.00;;;;;24.84;39.57;102372.81;5048921;28;45491;-67
2022/07/10 08:20:29;;;;;;;;;5.00;5.00;;;;;25.04;38.88;102384.13;5046377;28;45577;-67
2022/07/10 08:22:55;;;;;;;;;5.33;3.67;;;;;25.11;38.32;102371.97;5047633;28;45472;-66
2022/07/10 08:25:20;;;;;;;;;2.00;2.00;;;;;25.16;38.79;102368.56;5045190;28;45524;-66
2022/07/10 08:27:46;;;;;;;;;3.00;3.00;;;;;25.33;38.77;102369.94;5034217;28;45371;-67
2022/07/10 08:30:12;;;;;;;;;3.67;3.67;;;;;25.47;37.80;102382.00;5044322;28;45209;-68
2022/07/10 08:32:38;;;;;;;;;4.67;3.00;;;;;25.42;37.86;102373.44;5045866;28;46263;-67
2022/07/10 08:35:04;;;;;;;;;5.67;4.67;;;;;25.24;38.03;102373.09;5041770;28;45461;-67
2022/07/10 08:37:30;;;;;;;;;3.00;3.00;;;;;25.40;36.89;102376.41;5046246;28;45452;-67
2022/07/10 08:39:55;;;;;;;;;5.67;4.00;;;;;25.51;36.67;102375.81;5042705;28;45468;-67
2022/07/10 08:42:22;;;;;;;;;3.33;3.33;;;;;25.53;37.07;102379.25;5043791;28;46462;-67
2022/07/10 08:44:48;;;;;;;;;3.00;3.00;;;;;25.82;36.92;102372.53;5048294;28;45303;-67
2022/07/10 08:47:14;;;;;;;;;3.00;3.00;;;;;25.99;36.94;102375.78;5024200;28;45419;-67
2022/07/10 08:49:46;;;;;;;;;4.00;4.00;;;;;26.15;36.99;102372.59;5050797;28;45338;-67
2022/07/10 08:52:31;;;;;;;;;2.00;2.00;;;;;26.11;35.97;102360.16;5044120;28;46708;-66
2022/07/10 08:54:56;;;;;;;;;6.00;3.67;;;;;26.50;36.11;102361.28;5054250;28;45516;-67
2022/07/10 08:57:23;;;;;;;;;4.33;3.00;;;;;26.61;35.13;102357.84;5045269;28;45856;-67
2022/07/10 08:59:49;;;;;;;;;3.33;3.33;;;;;26.62;35.52;102348.41;5046712;28;45261;-67
2022/07/10 09:02:14;;;;;;;;;3.33;3.00;;;;;26.72;34.73;102341.34;5039360;28;46612;-68
2022/07/10 09:04:40;;;;;;;;;4.00;4.00;;;;;26.72;34.57;102352.50;5046292;28;45484;-68
2022/07/10 09:07:05;;;;;;;;;4.00;4.00;;;;;26.53;34.52;102338.53;5047737;28;45398;-68
2022/07/10 09:09:30;;;;;;;;;2.00;2.00;;;;;26.55;34.40;102341.97;5054572;28;45432;-68
2022/07/10 09:11:57;;;;;;;;;3.67;2.67;;;;;26.79;34.18;102332.09;5045865;28;45487;-68
2022/07/10 09:14:25;;;;;;;;;5.00;3.33;;;;;26.54;34.50;102335.56;5052983;28;45168;-68
2022/07/10 09:16:51;;;;;;;;;3.33;3.33;;;;;26.90;34.08;102335.09;5045840;28;45296;-67
2022/07/10 09:19:16;;;;;;;;;4.67;3.00;;;;;27.28;33.92;102329.63;5054689;28;45470;-68
2022/07/10 09:21:43;;;;;;;;;2.00;1.67;;;;;27.44;33.28;102331.06;5045013;28;46601;-68
2022/07/10 09:24:09;;;;;;;;;3.67;3.67;;;;;27.62;32.88;102317.22;5043288;28;45304;-68
2022/07/10 09:26:39;;;;;;;;;2.00;2.00;;;;;26.96;33.10;102327.78;5045615;28;45276;-67
2022/07/10 09:29:09;;;;;;;;;3.00;3.00;;;;;26.97;32.94;102326.72;5049400;28;45773;-66
2022/07/10 09:31:54;;;;;;;;;2.00;2.00;;;;;27.46;33.14;102323.31;5044105;28;47417;-66
2022/07/10 09:34:42;;;;;;;;;3.00;3.00;;;;;27.64;32.56;102320.66;5047781;28;45169;-67
2022/07/10 09:37:28;;;;;;;;;3.33;3.33;;;;;27.79;32.48;102318.44;5046800;28;45714;-67
2022/07/10 09:39:55;;;;;;;;;3.00;3.00;;;;;27.39;32.67;102333.66;5043832;28;45696;-67
2022/07/10 09:42:27;;;;;;;;;3.00;3.00;;;;;27.82;32.68;102329.16;5046064;28;45370;-69
2022/07/10 09:45:12;;;;;;;;;3.00;3.00;;;;;28.33;32.06;102330.97;5043248;28;45245;-68
2022/07/10 09:48:04;;;;;;;;;3.33;3.00;;;;;28.68;31.84;102325.69;5050883;28;45422;-68
2022/07/10 09:50:34;;;;;;;;;2.50;2.50;;;;;28.79;30.66;102322.16;5054460;28;45460;-68
2022/07/10 09:53:01;;;;;;;;;2.33;2.33;;;;;28.45;31.26;102322.69;5058331;28;45544;-68
2022/07/10 09:55:29;;;;;;;;;3.33;3.00;;;;;28.64;31.18;102324.44;5055339;28;45591;-68
2022/07/10 09:57:57;;;;;;;;;2.33;2.33;;;;;28.92;30.68;102316.44;5063942;28;45341;-68
2022/07/10 10:00:32;;;;;;;;;2.00;2.00;;;;;28.69;30.72;102316.22;5045136;28;45621;-67
2022/07/10 10:03:06;;;;;;;;;2.00;2.00;;;;;29.25;30.37;102318.84;5054459;28;46812;-67
2022/07/10 10:05:37;;;;;;;;;3.00;3.00;;;;;29.71;29.93;102312.66;5034366;28;45279;-68
2022/07/10 10:08:17;;;;;;;;;2.00;2.00;;;;;30.04;29.43;102303.75;5029994;28;45456;-67
2022/07/10 10:10:48;;;;;;;;;4.00;4.00;;;;;30.09;28.28;102289.88;5053135;28;45319;-67
2022/07/10 10:13:20;;;;;;;;;3.00;3.00;;;;;30.14;28.22;102305.97;5049792;28;46497;-69
2022/07/10 10:15:50;;;;;;;;;4.00;2.00;;;;;30.44;28.51;102311.50;5039467;28;45508;-68
2022/07/10 10:18:23;;;;;;;;;3.33;2.00;;;;;30.69;28.12;102309.31;5050736;28;45319;-68
2022/07/10 10:20:50;;;;;;;;;3.00;2.67;;;;;30.17;28.54;102286.69;5047191;28;45671;-68
2022/07/10 10:23:21;;;;;;;;;3.67;3.00;;;;;29.88;29.22;102300.78;5034018;28;46624;-68
2022/07/10 10:25:48;;;;;;;;;2.00;2.00;;;;;29.49;29.39;102297.44;5035693;28;45559;-68
2022/07/10 10:28:15;;;;;;;;;2.33;2.33;;;;;30.07;29.17;102299.63;5056835;28;45523;-68
2022/07/10 10:30:43;;;;;;;;;2.00;2.00;;;;;30.73;27.93;102281.66;5048482;28;45311;-68
2022/07/10 10:33:30;;;;;;;;;4.00;4.00;;;;;31.23;27.63;102287.56;5049047;28;46379;-68
2022/07/10 10:35:55;;;;;;;;;4.00;3.00;;;;;31.08;26.93;102296.50;5059128;28;45320;-67
2022/07/10 10:38:22;;;;;;;;;3.67;3.67;;;;;30.11;28.29;102296.09;5054389;28;48226;-68
2022/07/10 10:40:48;;;;;;;;;2.00;2.00;;;;;30.34;28.88;102294.41;5047200;28;45320;-68
2022/07/10 10:43:19;;;;;;;;;3.33;3.33;;;;;30.88;28.74;102285.66;5047989;28;45444;-68
2022/07/10 10:45:46;;;;;;;;;3.00;3.00;;;;;31.32;27.55;102275.69;5045720;28;45379;-68
2022/07/10 10:48:17;;;;;;;;;4.00;2.00;;;;;31.71;26.87;102267.47;5051893;28;45331;-68
2022/07/10 10:50:49;;;;;;;;;1.33;1.33;;;;;31.48;27.05;102271.22;5027408;28;45500;-68
2022/07/10 10:53:35;;;;;;;;;4.00;3.00;;;;;31.15;27.46;102271.94;5052640;28;46238;-67
2022/07/10 10:56:00;;;;;;;;;1.00;1.00;;;;;30.49;28.33;102266.72;5046040;28;45300;-67
2022/07/10 10:58:27;;;;;;;;;2.00;2.00;;;;;31.09;28.80;102266.47;5057088;28;45215;-68
2022/07/10 11:01:28;;;;;;;;;3.33;3.33;;;;;31.81;27.02;102264.00;5044493;28;45218;-68
2022/07/10 11:04:08;;;;;;;;;2.00;2.00;;;;;30.99;27.97;102271.81;5045075;28;47309;-68
2022/07/10 11:06:52;;;;;;;;;2.00;2.00;;;;;30.21;28.47;102261.84;5046848;28;45288;-68
2022/07/10 11:09:36;;;;;;;;;2.00;2.00;;;;;30.86;29.04;102254.16;5059190;28;45501;-68
2022/07/10 11:12:05;;;;;;;;;2.00;2.00;;;;;31.83;26.29;102247.72;5045532;28;45309;-68
2022/07/10 11:14:37;;;;;;;;;2.00;2.00;;;;;31.50;27.04;102240.06;5047064;28;45405;-68
2022/07/10 11:17:03;;;;;;;;;2.00;2.00;;;;;31.31;27.37;102240.28;5044973;28;45435;-68
2022/07/10 11:19:31;;;;;;;;;1.00;1.00;;;;;32.12;27.36;102237.25;5047980;28;45520;-68
2022/07/10 11:22:27;;;;;;;;;3.00;1.00;;;;;32.50;26.14;102242.97;5043224;28;45571;-68
2022/07/10 11:25:24;;;;;;;;;2.00;2.00;;;;;31.64;27.22;102228.28;5030551;28;45800;-68
2022/07/10 11:28:11;;;;;;;;;4.00;4.00;;;;;32.20;26.80;102228.44;5038781;28;45504;-68
2022/07/10 11:30:50;;;;;;;;;2.00;2.00;;;;;32.80;26.04;102220.06;5027042;28;45352;-68
2022/07/10 11:33:16;;;;;;;;;2.33;2.33;;;;;33.13;25.12;102217.09;5054356;28;45481;-68
2022/07/10 11:35:46;;;;;;;;;2.33;2.00;;;;;33.42;25.10;102228.16;5026229;28;47581;-68